This is the latest recevied weather packets stored in our database for station/object OH1KK. If no packets are shown the sender has not sent any weather packets the latest 10 day(s).
| Time | Temp. | Humidity | Pressure | Rain* | Wind** | Luminosity | Snow |
|---|---|---|---|---|---|---|---|
| 1777858468 | -3.33° C | 86% | 999.2 hPa | 0 mm | - | - | - |
| 1777857552 | -3.33° C | 86% | 999.4 hPa | 0 mm | - | - | - |
| 1777856698 | -3.33° C | 85% | 999.3 hPa | 0 mm | - | - | - |
| 1777855783 | -2.78° C | 83% | 999.4 hPa | 0 mm | - | - | - |
| 1777854868 | -2.78° C | 82% | 999.5 hPa | 0 mm | - | - | - |
| 1777853953 | -2.78° C | 83% | 999.7 hPa | 0 mm | - | - | - |
| 1777853099 | -2.78° C | 82% | 999.8 hPa | 0 mm | - | - | - |
| 1777852184 | -2.22° C | 82% | 1000 hPa | 0 mm | - | - | - |
| 1777851269 | -2.22° C | 82% | 999.7 hPa | 0 mm | - | - | - |
| 1777850354 | -2.22° C | 80% | 999.8 hPa | 0 mm | - | - | - |
| 1777848586 | -1.67° C | 77% | 999.7 hPa | 0 mm | - | - | - |
| 1777847671 | -1.67° C | 77% | 999.7 hPa | 0 mm | - | - | - |
| 1777846756 | -1.11° C | 77% | 999.8 hPa | 0 mm | - | - | - |
| 1777845841 | -1.67° C | 78% | 1000 hPa | 0 mm | - | - | - |
| 1777844987 | -1.11° C | 75% | 1000.1 hPa | 0 mm | - | - | - |
| 1777843156 | -1.11° C | 75% | 1000.1 hPa | 0 mm | - | - | - |
| 1777842241 | -0.56° C | 74% | 1000.1 hPa | 0 mm | - | - | - |
| 1777841388 | 0° C | 71% | 1000.3 hPa | 0 mm | - | - | - |
| 1777840473 | 0° C | 69% | 1000.4 hPa | 0 mm | - | - | - |
| 1777839557 | 0.56° C | 69% | 1000.2 hPa | 0 mm | - | - | - |
| 1777838642 | 1.11° C | 67% | 1000.5 hPa | 0 mm | - | - | - |
| 1777836873 | 2.22° C | 63% | 1000.2 hPa | 0 mm | - | - | - |
| 1777835958 | 2.78° C | 59% | 1000.5 hPa | 0 mm | - | - | - |
| 1777835043 | 3.89° C | 54% | 1000.4 hPa | 0 mm | - | - | - |
| 1777834190 | 5° C | 51% | 1000.3 hPa | 0 mm | - | - | - |
* Rain latest hour (hover to see other rain measurements)
** Current wind speed in m/s (hover to see current wind gust speed)